sensor_id;sensor_type;location;lat;lon;timestamp;noise_LAeq;noise_LA_min;noise_LA_max;noise_LA01;noise_LA95
18377;Laerm;9315;52.624;13.544;2023-09-08T00:00:21;39.11;35.53;46.92;;
18377;Laerm;9315;52.624;13.544;2023-09-08T00:02:48;40.05;35.91;46.43;;
18377;Laerm;9315;52.624;13.544;2023-09-08T00:05:16;40.85;36.35;51.95;;
18377;Laerm;9315;52.624;13.544;2023-09-08T00:07:43;39.35;34.77;45.82;;
18377;Laerm;9315;52.624;13.544;2023-09-08T00:10:10;49.82;34.76;66.78;;
18377;Laerm;9315;52.624;13.544;2023-09-08T00:12:39;55.79;37.00;72.56;;
18377;Laerm;9315;52.624;13.544;2023-09-08T00:15:07;62.85;33.61;80.63;;
18377;Laerm;9315;52.624;13.544;2023-09-08T00:17:35;54.79;34.92;75.50;;
18377;Laerm;9315;52.624;13.544;2023-09-08T00:20:06;40.66;36.08;46.75;;
18377;Laerm;9315;52.624;13.544;2023-09-08T00:22:37;39.71;35.83;45.70;;
18377;Laerm;9315;52.624;13.544;2023-09-08T00:25:06;54.04;36.99;70.69;;
18377;Laerm;9315;52.624;13.544;2023-09-08T00:27:33;64.27;39.08;79.53;;
18377;Laerm;9315;52.624;13.544;2023-09-08T00:30:00;42.26;36.73;50.48;;
18377;Laerm;9315;52.624;13.544;2023-09-08T00:32:29;40.22;34.71;46.37;;
18377;Laerm;9315;52.624;13.544;2023-09-08T00:34:56;39.57;35.46;45.70;;
18377;Laerm;9315;52.624;13.544;2023-09-08T00:37:23;39.96;36.04;44.92;;
18377;Laerm;9315;52.624;13.544;2023-09-08T00:39:51;56.27;36.83;71.11;;
18377;Laerm;9315;52.624;13.544;2023-09-08T00:42:18;50.82;35.04;66.92;;
18377;Laerm;9315;52.624;13.544;2023-09-08T00:44:45;56.44;36.70;74.81;;
18377;Laerm;9315;52.624;13.544;2023-09-08T00:47:12;42.39;36.06;53.19;;
18377;Laerm;9315;52.624;13.544;2023-09-08T00:49:39;55.38;35.82;73.47;;
18377;Laerm;9315;52.624;13.544;2023-09-08T00:52:07;58.19;37.38;76.74;;
18377;Laerm;9315;52.624;13.544;2023-09-08T00:54:34;39.29;35.59;44.90;;
18377;Laerm;9315;52.624;13.544;2023-09-08T00:57:02;42.08;35.23;54.29;;
18377;Laerm;9315;52.624;13.544;2023-09-08T00:59:32;59.74;36.73;73.06;;
18377;Laerm;9315;52.624;13.544;2023-09-08T01:02:01;49.18;37.23;63.59;;
18377;Laerm;9315;52.624;13.544;2023-09-08T01:04:29;57.44;37.20;75.02;;
18377;Laerm;9315;52.624;13.544;2023-09-08T01:06:57;51.95;37.56;69.50;;
18377;Laerm;9315;52.624;13.544;2023-09-08T01:09:25;41.49;36.62;46.93;;
18377;Laerm;9315;52.624;13.544;2023-09-08T01:11:52;55.15;37.17;71.51;;
18377;Laerm;9315;52.624;13.544;2023-09-08T01:14:22;57.49;38.49;75.43;;
18377;Laerm;9315;52.624;13.544;2023-09-08T01:16:49;40.68;35.34;47.40;;
18377;Laerm;9315;52.624;13.544;2023-09-08T01:19:17;41.12;36.71;46.64;;
18377;Laerm;9315;52.624;13.544;2023-09-08T01:25:24;40.72;36.57;46.85;;
18377;Laerm;9315;52.624;13.544;2023-09-08T01:28:00;52.31;37.65;67.94;;
18377;Laerm;9315;52.624;13.544;2023-09-08T01:30:29;57.37;37.70;72.87;;
18377;Laerm;9315;52.624;13.544;2023-09-08T01:33:00;60.41;38.65;75.98;;
18377;Laerm;9315;52.624;13.544;2023-09-08T01:35:28;55.89;37.74;73.32;;
18377;Laerm;9315;52.624;13.544;2023-09-08T01:37:56;62.22;40.12;78.04;;
18377;Laerm;9315;52.624;13.544;2023-09-08T01:40:23;56.22;39.35;75.55;;
18377;Laerm;9315;52.624;13.544;2023-09-08T01:42:51;55.48;40.25;69.51;;
18377;Laerm;9315;52.624;13.544;2023-09-08T01:45:19;60.96;40.84;76.07;;
18377;Laerm;9315;52.624;13.544;2023-09-08T01:47:46;61.41;41.10;77.30;;
18377;Laerm;9315;52.624;13.544;2023-09-08T01:50:13;52.88;39.10;69.50;;
18377;Laerm;9315;52.624;13.544;2023-09-08T01:52:41;51.58;38.64;68.51;;
18377;Laerm;9315;52.624;13.544;2023-09-08T01:55:08;59.76;37.94;81.34;;
18377;Laerm;9315;52.624;13.544;2023-09-08T01:57:35;57.64;38.55;74.83;;
18377;Laerm;9315;52.624;13.544;2023-09-08T02:00:03;53.78;38.05;72.68;;
18377;Laerm;9315;52.624;13.544;2023-09-08T02:02:31;54.94;39.69;70.08;;
18377;Laerm;9315;52.624;13.544;2023-09-08T02:04:58;61.64;39.42;79.60;;
18377;Laerm;9315;52.624;13.544;2023-09-08T02:07:25;60.13;40.12;75.85;;
18377;Laerm;9315;52.624;13.544;2023-09-08T02:09:53;60.20;41.99;76.70;;
18377;Laerm;9315;52.624;13.544;2023-09-08T02:12:21;62.32;40.81;79.62;;
18377;Laerm;9315;52.624;13.544;2023-09-08T02:14:48;63.47;40.85;75.65;;
18377;Laerm;9315;52.624;13.544;2023-09-08T02:17:16;60.24;41.90;73.24;;
18377;Laerm;9315;52.624;13.544;2023-09-08T02:19:43;61.21;41.06;73.99;;
18377;Laerm;9315;52.624;13.544;2023-09-08T02:22:10;55.17;40.86;67.68;;
18377;Laerm;9315;52.624;13.544;2023-09-08T02:24:37;57.87;40.05;73.88;;
18377;Laerm;9315;52.624;13.544;2023-09-08T02:27:05;58.19;41.05;71.39;;
18377;Laerm;9315;52.624;13.544;2023-09-08T02:29:32;61.02;40.71;74.84;;
18377;Laerm;9315;52.624;13.544;2023-09-08T02:31:59;64.44;42.06;80.56;;
18377;Laerm;9315;52.624;13.544;2023-09-08T02:34:26;62.54;41.70;74.98;;
18377;Laerm;9315;52.624;13.544;2023-09-08T02:36:56;63.27;41.03;76.57;;
18377;Laerm;9315;52.624;13.544;2023-09-08T02:39:24;62.50;42.68;75.86;;
18377;Laerm;9315;52.624;13.544;2023-09-08T02:41:53;60.91;40.58;75.69;;
18377;Laerm;9315;52.624;13.544;2023-09-08T02:44:22;61.48;41.50;74.22;;
18377;Laerm;9315;52.624;13.544;2023-09-08T02:46:49;62.44;42.56;74.16;;
18377;Laerm;9315;52.624;13.544;2023-09-08T02:49:16;61.87;43.14;74.33;;
18377;Laerm;9315;52.624;13.544;2023-09-08T02:51:44;63.88;42.18;76.27;;
18377;Laerm;9315;52.624;13.544;2023-09-08T02:54:11;59.44;43.45;71.84;;
18377;Laerm;9315;52.624;13.544;2023-09-08T02:56:38;60.49;43.23;73.75;;
18377;Laerm;9315;52.624;13.544;2023-09-08T02:59:05;62.43;43.46;75.15;;
18377;Laerm;9315;52.624;13.544;2023-09-08T03:01:33;64.95;42.45;79.11;;
18377;Laerm;9315;52.624;13.544;2023-09-08T03:04:00;65.29;44.59;79.24;;
18377;Laerm;9315;52.624;13.544;2023-09-08T03:06:28;66.26;44.05;79.93;;
18377;Laerm;9315;52.624;13.544;2023-09-08T03:08:55;65.46;43.06;80.08;;
18377;Laerm;9315;52.624;13.544;2023-09-08T03:11:24;63.86;43.32;74.83;;
18377;Laerm;9315;52.624;13.544;2023-09-08T03:13:52;66.63;43.06;81.92;;
18377;Laerm;9315;52.624;13.544;2023-09-08T03:16:19;66.27;44.89;76.42;;
18377;Laerm;9315;52.624;13.544;2023-09-08T03:18:46;62.06;43.65;72.81;;
18377;Laerm;9315;52.624;13.544;2023-09-08T03:21:17;64.23;43.00;75.36;;
18377;Laerm;9315;52.624;13.544;2023-09-08T03:23:45;66.29;44.60;78.24;;
18377;Laerm;9315;52.624;13.544;2023-09-08T03:26:12;64.59;43.52;73.37;;
18377;Laerm;9315;52.624;13.544;2023-09-08T03:28:42;65.27;45.23;74.80;;
18377;Laerm;9315;52.624;13.544;2023-09-08T03:31:10;64.95;45.68;76.91;;
18377;Laerm;9315;52.624;13.544;2023-09-08T03:33:40;65.43;44.55;79.28;;
18377;Laerm;9315;52.624;13.544;2023-09-08T03:36:09;65.28;46.30;75.85;;
18377;Laerm;9315;52.624;13.544;2023-09-08T03:38:37;65.47;46.21;78.06;;
18377;Laerm;9315;52.624;13.544;2023-09-08T03:41:05;64.39;47.16;76.91;;
18377;Laerm;9315;52.624;13.544;2023-09-08T03:43:33;66.23;47.61;76.38;;
18377;Laerm;9315;52.624;13.544;2023-09-08T03:46:00;65.07;46.41;74.87;;
18377;Laerm;9315;52.624;13.544;2023-09-08T03:48:27;65.05;45.66;75.66;;
18377;Laerm;9315;52.624;13.544;2023-09-08T03:50:55;63.57;45.77;74.88;;
18377;Laerm;9315;52.624;13.544;2023-09-08T03:53:22;68.92;44.85;78.34;;
18377;Laerm;9315;52.624;13.544;2023-09-08T03:55:57;65.72;45.08;78.75;;
18377;Laerm;9315;52.624;13.544;2023-09-08T03:58:39;66.85;45.76;76.22;;
18377;Laerm;9315;52.624;13.544;2023-09-08T04:01:06;66.24;46.66;77.51;;
18377;Laerm;9315;52.624;13.544;2023-09-08T04:03:33;66.92;46.44;77.96;;
18377;Laerm;9315;52.624;13.544;2023-09-08T04:06:01;68.64;47.13;78.95;;
18377;Laerm;9315;52.624;13.544;2023-09-08T04:08:28;67.68;47.00;81.61;;
18377;Laerm;9315;52.624;13.544;2023-09-08T04:10:55;66.96;46.75;77.73;;
18377;Laerm;9315;52.624;13.544;2023-09-08T04:13:22;64.97;45.75;76.02;;
18377;Laerm;9315;52.624;13.544;2023-09-08T04:15:50;68.73;47.39;82.95;;
18377;Laerm;9315;52.624;13.544;2023-09-08T04:18:17;68.02;46.56;77.78;;
18377;Laerm;9315;52.624;13.544;2023-09-08T04:20:44;67.54;45.88;78.24;;
18377;Laerm;9315;52.624;13.544;2023-09-08T04:23:11;68.84;45.64;80.73;;
18377;Laerm;9315;52.624;13.544;2023-09-08T04:25:38;69.95;46.46;80.07;;
18377;Laerm;9315;52.624;13.544;2023-09-08T04:28:06;71.78;49.83;82.49;;
18377;Laerm;9315;52.624;13.544;2023-09-08T04:30:33;68.15;47.60;76.99;;
18377;Laerm;9315;52.624;13.544;2023-09-08T04:33:00;69.35;47.54;80.58;;
18377;Laerm;9315;52.624;13.544;2023-09-08T04:35:28;69.74;48.81;78.98;;
18377;Laerm;9315;52.624;13.544;2023-09-08T04:37:55;69.80;46.97;79.05;;
18377;Laerm;9315;52.624;13.544;2023-09-08T04:40:22;68.11;47.33;78.41;;
18377;Laerm;9315;52.624;13.544;2023-09-08T04:42:49;67.54;46.70;80.27;;
18377;Laerm;9315;52.624;13.544;2023-09-08T04:45:16;70.57;48.37;86.45;;
18377;Laerm;9315;52.624;13.544;2023-09-08T04:47:44;67.50;45.67;77.56;;
18377;Laerm;9315;52.624;13.544;2023-09-08T04:50:13;69.02;46.45;81.89;;
18377;Laerm;9315;52.624;13.544;2023-09-08T04:52:44;68.63;46.41;81.43;;
18377;Laerm;9315;52.624;13.544;2023-09-08T04:55:11;66.37;45.96;77.45;;
18377;Laerm;9315;52.624;13.544;2023-09-08T04:57:38;69.58;49.74;80.45;;
18377;Laerm;9315;52.624;13.544;2023-09-08T05:00:07;65.81;46.00;76.17;;
18377;Laerm;9315;52.624;13.544;2023-09-08T05:02:34;67.81;46.41;76.57;;
18377;Laerm;9315;52.624;13.544;2023-09-08T05:05:01;68.30;47.80;78.70;;
18377;Laerm;9315;52.624;13.544;2023-09-08T05:07:29;71.99;51.31;86.21;;
18377;Laerm;9315;52.624;13.544;2023-09-08T05:09:56;68.87;47.20;81.79;;
18377;Laerm;9315;52.624;13.544;2023-09-08T05:12:26;69.71;46.99;85.00;;
18377;Laerm;9315;52.624;13.544;2023-09-08T05:14:53;69.92;46.52;80.63;;
18377;Laerm;9315;52.624;13.544;2023-09-08T05:17:24;68.09;48.86;77.71;;
18377;Laerm;9315;52.624;13.544;2023-09-08T05:19:51;71.07;46.76;88.83;;
18377;Laerm;9315;52.624;13.544;2023-09-08T05:22:18;72.14;52.76;83.05;;
18377;Laerm;9315;52.624;13.544;2023-09-08T05:24:45;68.76;50.09;81.69;;
18377;Laerm;9315;52.624;13.544;2023-09-08T05:27:13;70.42;50.72;81.36;;
18377;Laerm;9315;52.624;13.544;2023-09-08T05:29:40;69.02;47.61;77.35;;
18377;Laerm;9315;52.624;13.544;2023-09-08T05:32:07;71.46;50.95;84.52;;
18377;Laerm;9315;52.624;13.544;2023-09-08T05:34:34;67.70;47.62;75.45;;
18377;Laerm;9315;52.624;13.544;2023-09-08T05:37:02;69.94;51.63;81.29;;
18377;Laerm;9315;52.624;13.544;2023-09-08T05:39:32;67.43;46.19;76.33;;
18377;Laerm;9315;52.624;13.544;2023-09-08T05:42:00;68.58;45.11;83.23;;
18377;Laerm;9315;52.624;13.544;2023-09-08T05:44:27;68.17;45.81;77.04;;
18377;Laerm;9315;52.624;13.544;2023-09-08T05:46:55;70.43;47.05;82.88;;
18377;Laerm;9315;52.624;13.544;2023-09-08T05:49:22;68.61;49.46;82.45;;
18377;Laerm;9315;52.624;13.544;2023-09-08T05:51:50;67.81;45.62;75.54;;
18377;Laerm;9315;52.624;13.544;2023-09-08T05:54:17;67.38;47.34;77.53;;
18377;Laerm;9315;52.624;13.544;2023-09-08T05:56:44;69.93;47.58;84.27;;
18377;Laerm;9315;52.624;13.544;2023-09-08T05:59:11;66.50;45.88;76.20;;
18377;Laerm;9315;52.624;13.544;2023-09-08T06:01:39;68.82;50.93;81.65;;
18377;Laerm;9315;52.624;13.544;2023-09-08T06:04:06;65.79;44.85;76.23;;
18377;Laerm;9315;52.624;13.544;2023-09-08T06:06:34;68.74;48.17;79.81;;
18377;Laerm;9315;52.624;13.544;2023-09-08T06:09:01;69.14;44.48;79.77;;
18377;Laerm;9315;52.624;13.544;2023-09-08T06:11:30;69.83;45.62;77.47;;
18377;Laerm;9315;52.624;13.544;2023-09-08T06:13:57;70.49;52.89;80.50;;
18377;Laerm;9315;52.624;13.544;2023-09-08T06:16:26;67.45;45.50;79.66;;
18377;Laerm;9315;52.624;13.544;2023-09-08T06:18:54;69.04;44.95;79.96;;
18377;Laerm;9315;52.624;13.544;2023-09-08T06:21:21;67.97;48.61;77.91;;
18377;Laerm;9315;52.624;13.544;2023-09-08T06:23:48;68.89;43.09;79.88;;
18377;Laerm;9315;52.624;13.544;2023-09-08T06:26:16;72.14;45.24;89.63;;
18377;Laerm;9315;52.624;13.544;2023-09-08T06:28:43;70.12;43.60;80.81;;
18377;Laerm;9315;52.624;13.544;2023-09-08T06:31:11;69.11;44.65;84.12;;
18377;Laerm;9315;52.624;13.544;2023-09-08T06:33:38;70.27;52.68;82.68;;
18377;Laerm;9315;52.624;13.544;2023-09-08T06:36:06;66.45;43.53;76.29;;
18377;Laerm;9315;52.624;13.544;2023-09-08T06:38:34;67.65;43.17;79.05;;
18377;Laerm;9315;52.624;13.544;2023-09-08T06:41:11;68.55;45.26;78.83;;
18377;Laerm;9315;52.624;13.544;2023-09-08T06:43:39;68.89;44.82;79.57;;
18377;Laerm;9315;52.624;13.544;2023-09-08T06:46:06;68.18;44.59;79.42;;
18377;Laerm;9315;52.624;13.544;2023-09-08T06:48:33;66.42;43.43;78.07;;
18377;Laerm;9315;52.624;13.544;2023-09-08T06:51:01;68.85;45.42;85.77;;
18377;Laerm;9315;52.624;13.544;2023-09-08T06:53:31;69.50;45.46;80.51;;
18377;Laerm;9315;52.624;13.544;2023-09-08T06:55:59;70.58;47.12;84.70;;
18377;Laerm;9315;52.624;13.544;2023-09-08T06:58:26;69.54;42.04;83.20;;
18377;Laerm;9315;52.624;13.544;2023-09-08T07:00:57;68.39;44.81;79.79;;
18377;Laerm;9315;52.624;13.544;2023-09-08T07:03:24;69.57;47.01;77.84;;
18377;Laerm;9315;52.624;13.544;2023-09-08T07:05:54;69.19;44.97;80.71;;
18377;Laerm;9315;52.624;13.544;2023-09-08T07:08:21;67.45;42.92;80.45;;
18377;Laerm;9315;52.624;13.544;2023-09-08T07:10:52;68.94;43.75;77.83;;
18377;Laerm;9315;52.624;13.544;2023-09-08T07:13:20;67.64;43.24;79.51;;
18377;Laerm;9315;52.624;13.544;2023-09-08T07:15:48;67.81;43.87;80.64;;
18377;Laerm;9315;52.624;13.544;2023-09-08T07:18:15;69.35;50.80;81.73;;
18377;Laerm;9315;52.624;13.544;2023-09-08T07:20:49;66.40;42.15;78.09;;
18377;Laerm;9315;52.624;13.544;2023-09-08T07:23:19;68.49;45.78;81.24;;
18377;Laerm;9315;52.624;13.544;2023-09-08T07:25:49;70.12;42.89;83.32;;
18377;Laerm;9315;52.624;13.544;2023-09-08T07:28:19;68.38;43.56;77.77;;
18377;Laerm;9315;52.624;13.544;2023-09-08T07:30:49;67.49;42.70;78.52;;
18377;Laerm;9315;52.624;13.544;2023-09-08T07:33:17;76.96;44.55;99.58;;
18377;Laerm;9315;52.624;13.544;2023-09-08T07:35:44;67.72;49.16;75.71;;
18377;Laerm;9315;52.624;13.544;2023-09-08T07:38:11;69.28;49.58;79.66;;
18377;Laerm;9315;52.624;13.544;2023-09-08T07:40:40;69.22;42.75;86.51;;
18377;Laerm;9315;52.624;13.544;2023-09-08T07:43:08;70.98;43.06;85.06;;
18377;Laerm;9315;52.624;13.544;2023-09-08T07:45:36;68.27;43.35;86.79;;
18377;Laerm;9315;52.624;13.544;2023-09-08T07:48:04;69.14;42.85;78.68;;
18377;Laerm;9315;52.624;13.544;2023-09-08T07:50:31;68.10;44.65;78.24;;
18377;Laerm;9315;52.624;13.544;2023-09-08T07:53:01;68.83;43.92;81.70;;
18377;Laerm;9315;52.624;13.544;2023-09-08T07:55:28;69.30;46.68;81.04;;
18377;Laerm;9315;52.624;13.544;2023-09-08T07:57:57;67.24;40.66;79.23;;
18377;Laerm;9315;52.624;13.544;2023-09-08T08:00:24;70.21;43.33;81.97;;
18377;Laerm;9315;52.624;13.544;2023-09-08T08:02:55;68.29;40.59;80.70;;
18377;Laerm;9315;52.624;13.544;2023-09-08T08:05:24;68.74;44.15;80.77;;
18377;Laerm;9315;52.624;13.544;2023-09-08T08:07:52;68.27;48.30;79.25;;
18377;Laerm;9315;52.624;13.544;2023-09-08T08:10:20;69.32;47.06;78.50;;
18377;Laerm;9315;52.624;13.544;2023-09-08T08:12:48;68.29;43.75;76.08;;
18377;Laerm;9315;52.624;13.544;2023-09-08T08:15:15;65.02;40.86;76.47;;
18377;Laerm;9315;52.624;13.544;2023-09-08T08:17:42;68.81;48.88;78.72;;
18377;Laerm;9315;52.624;13.544;2023-09-08T08:20:11;68.14;42.72;77.54;;
18377;Laerm;9315;52.624;13.544;2023-09-08T08:22:45;67.77;43.07;78.64;;
18377;Laerm;9315;52.624;13.544;2023-09-08T08:25:13;67.67;50.47;85.86;;
18377;Laerm;9315;52.624;13.544;2023-09-08T08:27:41;67.49;48.30;80.85;;
18377;Laerm;9315;52.624;13.544;2023-09-08T08:30:12;68.32;44.77;78.59;;
18377;Laerm;9315;52.624;13.544;2023-09-08T08:32:39;69.12;46.49;81.10;;
18377;Laerm;9315;52.624;13.544;2023-09-08T08:35:10;69.41;43.74;79.28;;
18377;Laerm;9315;52.624;13.544;2023-09-08T08:37:40;69.85;44.51;81.76;;
18377;Laerm;9315;52.624;13.544;2023-09-08T08:40:10;68.29;43.68;77.32;;
18377;Laerm;9315;52.624;13.544;2023-09-08T08:42:44;69.13;42.72;80.08;;
18377;Laerm;9315;52.624;13.544;2023-09-08T08:45:11;67.75;45.93;76.57;;
18377;Laerm;9315;52.624;13.544;2023-09-08T08:47:39;68.12;43.20;79.80;;
18377;Laerm;9315;52.624;13.544;2023-09-08T08:50:09;68.41;44.89;78.58;;
18377;Laerm;9315;52.624;13.544;2023-09-08T08:52:38;70.06;43.29;84.54;;
18377;Laerm;9315;52.624;13.544;2023-09-08T08:55:07;69.34;49.95;78.39;;
18377;Laerm;9315;52.624;13.544;2023-09-08T08:57:40;69.89;44.95;82.85;;
18377;Laerm;9315;52.624;13.544;2023-09-08T09:00:11;67.42;42.84;77.71;;
18377;Laerm;9315;52.624;13.544;2023-09-08T09:02:45;70.25;47.36;86.03;;
18377;Laerm;9315;52.624;13.544;2023-09-08T09:05:34;68.52;43.49;83.73;;
18377;Laerm;9315;52.624;13.544;2023-09-08T09:08:04;69.43;46.02;82.68;;
18377;Laerm;9315;52.624;13.544;2023-09-08T09:10:32;68.34;48.07;77.11;;
18377;Laerm;9315;52.624;13.544;2023-09-08T09:13:00;67.85;44.08;79.67;;
18377;Laerm;9315;52.624;13.544;2023-09-08T09:15:31;70.06;41.83;80.30;;
18377;Laerm;9315;52.624;13.544;2023-09-08T09:18:08;68.20;43.44;77.45;;
18377;Laerm;9315;52.624;13.544;2023-09-08T09:20:39;67.17;42.79;78.66;;
18377;Laerm;9315;52.624;13.544;2023-09-08T09:23:08;69.72;46.61;80.79;;
18377;Laerm;9315;52.624;13.544;2023-09-08T09:25:40;84.02;50.58;107.86;;
18377;Laerm;9315;52.624;13.544;2023-09-08T09:28:10;69.57;47.06;79.92;;
18377;Laerm;9315;52.624;13.544;2023-09-08T09:31:01;68.10;47.04;79.58;;
18377;Laerm;9315;52.624;13.544;2023-09-08T09:33:30;67.86;46.47;78.22;;
18377;Laerm;9315;52.624;13.544;2023-09-08T09:35:58;69.43;44.54;82.77;;
18377;Laerm;9315;52.624;13.544;2023-09-08T09:38:39;69.41;47.53;79.91;;
18377;Laerm;9315;52.624;13.544;2023-09-08T09:41:06;68.41;47.88;82.68;;
18377;Laerm;9315;52.624;13.544;2023-09-08T09:43:34;68.66;44.66;81.47;;
18377;Laerm;9315;52.624;13.544;2023-09-08T09:46:01;68.95;46.74;84.73;;
18377;Laerm;9315;52.624;13.544;2023-09-08T09:48:30;67.95;42.70;77.13;;
18377;Laerm;9315;52.624;13.544;2023-09-08T09:50:59;67.67;46.94;78.41;;
18377;Laerm;9315;52.624;13.544;2023-09-08T09:53:41;67.25;41.31;77.82;;
18377;Laerm;9315;52.624;13.544;2023-09-08T09:56:15;68.05;47.49;78.46;;
18377;Laerm;9315;52.624;13.544;2023-09-08T09:58:44;68.91;42.98;78.80;;
18377;Laerm;9315;52.624;13.544;2023-09-08T10:01:14;67.66;43.42;78.68;;
18377;Laerm;9315;52.624;13.544;2023-09-08T10:03:42;68.35;45.90;77.46;;
18377;Laerm;9315;52.624;13.544;2023-09-08T10:06:11;68.66;43.45;76.45;;
18377;Laerm;9315;52.624;13.544;2023-09-08T10:08:49;66.75;41.53;76.60;;
18377;Laerm;9315;52.624;13.544;2023-09-08T10:11:21;70.39;47.88;83.75;;
18377;Laerm;9315;52.624;13.544;2023-09-08T10:13:51;69.63;47.50;80.95;;
18377;Laerm;9315;52.624;13.544;2023-09-08T10:16:21;69.61;49.42;83.93;;
18377;Laerm;9315;52.624;13.544;2023-09-08T10:18:58;67.66;42.18;79.54;;
18377;Laerm;9315;52.624;13.544;2023-09-08T10:21:29;69.26;47.55;79.93;;
18377;Laerm;9315;52.624;13.544;2023-09-08T10:24:28;69.45;43.27;84.18;;
18377;Laerm;9315;52.624;13.544;2023-09-08T10:27:11;66.28;44.04;82.75;;
18377;Laerm;9315;52.624;13.544;2023-09-08T10:29:39;67.81;48.62;75.84;;
18377;Laerm;9315;52.624;13.544;2023-09-08T10:32:08;70.64;46.08;90.91;;
18377;Laerm;9315;52.624;13.544;2023-09-08T10:34:37;69.82;41.45;82.39;;
18377;Laerm;9315;52.624;13.544;2023-09-08T10:37:25;67.31;40.45;77.10;;
18377;Laerm;9315;52.624;13.544;2023-09-08T10:40:24;68.58;42.95;77.79;;
18377;Laerm;9315;52.624;13.544;2023-09-08T10:43:08;67.49;43.27;77.74;;
18377;Laerm;9315;52.624;13.544;2023-09-08T10:45:36;68.82;42.70;78.27;;
18377;Laerm;9315;52.624;13.544;2023-09-08T10:48:03;66.75;43.24;76.25;;
18377;Laerm;9315;52.624;13.544;2023-09-08T10:50:35;69.45;41.21;83.71;;
18377;Laerm;9315;52.624;13.544;2023-09-08T10:53:16;67.17;42.11;76.73;;
18377;Laerm;9315;52.624;13.544;2023-09-08T10:55:50;69.83;42.87;81.66;;
18377;Laerm;9315;52.624;13.544;2023-09-08T10:58:40;68.72;42.24;84.70;;
18377;Laerm;9315;52.624;13.544;2023-09-08T11:01:21;69.65;46.81;77.20;;
18377;Laerm;9315;52.624;13.544;2023-09-08T11:03:58;67.44;48.38;76.53;;
18377;Laerm;9315;52.624;13.544;2023-09-08T11:06:27;66.56;41.76;76.41;;
18377;Laerm;9315;52.624;13.544;2023-09-08T11:09:07;68.00;42.83;77.53;;
18377;Laerm;9315;52.624;13.544;2023-09-08T11:11:35;68.29;49.53;77.98;;
18377;Laerm;9315;52.624;13.544;2023-09-08T11:14:04;68.38;44.15;78.37;;
18377;Laerm;9315;52.624;13.544;2023-09-08T11:16:31;67.78;43.59;79.21;;
18377;Laerm;9315;52.624;13.544;2023-09-08T11:19:00;68.58;45.57;77.24;;
18377;Laerm;9315;52.624;13.544;2023-09-08T11:21:32;67.37;41.41;77.28;;
18377;Laerm;9315;52.624;13.544;2023-09-08T11:24:06;68.09;44.05;79.37;;
18377;Laerm;9315;52.624;13.544;2023-09-08T11:26:34;68.00;40.61;79.89;;
18377;Laerm;9315;52.624;13.544;2023-09-08T11:29:03;69.09;45.91;76.98;;
18377;Laerm;9315;52.624;13.544;2023-09-08T11:31:30;68.69;41.72;78.91;;
18377;Laerm;9315;52.624;13.544;2023-09-08T11:33:58;70.11;41.26;83.84;;
18377;Laerm;9315;52.624;13.544;2023-09-08T11:36:27;68.24;48.04;79.87;;
18377;Laerm;9315;52.624;13.544;2023-09-08T11:38:56;69.01;40.16;78.12;;
18377;Laerm;9315;52.624;13.544;2023-09-08T11:41:23;70.73;43.99;90.79;;
18377;Laerm;9315;52.624;13.544;2023-09-08T11:43:52;69.30;50.21;83.53;;
18377;Laerm;9315;52.624;13.544;2023-09-08T11:46:19;67.86;47.86;77.55;;
18377;Laerm;9315;52.624;13.544;2023-09-08T11:48:48;68.10;46.22;86.19;;
18377;Laerm;9315;52.624;13.544;2023-09-08T11:51:15;67.69;45.65;76.91;;
18377;Laerm;9315;52.624;13.544;2023-09-08T11:53:43;66.91;46.25;80.72;;
18377;Laerm;9315;52.624;13.544;2023-09-08T11:56:10;68.05;46.91;78.84;;
18377;Laerm;9315;52.624;13.544;2023-09-08T11:58:37;70.30;43.44;86.70;;
18377;Laerm;9315;52.624;13.544;2023-09-08T12:01:06;69.20;48.72;78.29;;
18377;Laerm;9315;52.624;13.544;2023-09-08T12:03:34;68.77;48.03;75.91;;
18377;Laerm;9315;52.624;13.544;2023-09-08T12:06:01;68.88;44.06;79.54;;
18377;Laerm;9315;52.624;13.544;2023-09-08T12:08:30;67.77;45.34;77.29;;
18377;Laerm;9315;52.624;13.544;2023-09-08T12:10:57;67.89;46.93;76.56;;
18377;Laerm;9315;52.624;13.544;2023-09-08T12:13:24;67.60;46.08;76.69;;
18377;Laerm;9315;52.624;13.544;2023-09-08T12:15:52;68.98;51.91;81.40;;
18377;Laerm;9315;52.624;13.544;2023-09-08T12:18:19;69.13;47.59;83.01;;
18377;Laerm;9315;52.624;13.544;2023-09-08T12:21:05;66.97;45.05;77.43;;
18377;Laerm;9315;52.624;13.544;2023-09-08T12:23:33;68.85;49.24;81.99;;
18377;Laerm;9315;52.624;13.544;2023-09-08T12:26:00;69.66;44.91;79.71;;
18377;Laerm;9315;52.624;13.544;2023-09-08T12:28:31;67.99;44.71;82.67;;
18377;Laerm;9315;52.624;13.544;2023-09-08T12:30:59;68.54;48.21;79.30;;
18377;Laerm;9315;52.624;13.544;2023-09-08T12:33:26;69.39;50.96;82.95;;
18377;Laerm;9315;52.624;13.544;2023-09-08T12:35:53;69.07;43.22;83.39;;
18377;Laerm;9315;52.624;13.544;2023-09-08T12:38:23;67.78;43.96;78.54;;
18377;Laerm;9315;52.624;13.544;2023-09-08T12:40:50;67.60;43.65;77.65;;
18377;Laerm;9315;52.624;13.544;2023-09-08T12:43:17;68.73;45.22;80.05;;
18377;Laerm;9315;52.624;13.544;2023-09-08T12:45:55;69.29;44.39;79.40;;
18377;Laerm;9315;52.624;13.544;2023-09-08T12:48:24;67.89;46.93;76.39;;
18377;Laerm;9315;52.624;13.544;2023-09-08T12:50:53;68.88;42.99;79.58;;
18377;Laerm;9315;52.624;13.544;2023-09-08T12:53:21;68.66;50.86;78.62;;
18377;Laerm;9315;52.624;13.544;2023-09-08T12:55:50;69.34;51.39;79.54;;
18377;Laerm;9315;52.624;13.544;2023-09-08T12:58:20;70.13;49.79;83.35;;
18377;Laerm;9315;52.624;13.544;2023-09-08T13:00:47;68.58;47.77;78.68;;
18377;Laerm;9315;52.624;13.544;2023-09-08T13:03:15;69.41;49.56;85.65;;
18377;Laerm;9315;52.624;13.544;2023-09-08T13:05:42;68.39;46.15;80.14;;
18377;Laerm;9315;52.624;13.544;2023-09-08T13:08:09;69.07;52.61;85.11;;
18377;Laerm;9315;52.624;13.544;2023-09-08T13:10:38;70.10;53.33;82.30;;
18377;Laerm;9315;52.624;13.544;2023-09-08T13:13:06;68.23;49.49;77.49;;
18377;Laerm;9315;52.624;13.544;2023-09-08T13:15:33;68.79;51.34;82.31;;
18377;Laerm;9315;52.624;13.544;2023-09-08T13:18:01;67.20;52.55;74.91;;
18377;Laerm;9315;52.624;13.544;2023-09-08T13:20:28;68.87;52.31;76.66;;
18377;Laerm;9315;52.624;13.544;2023-09-08T13:22:55;67.53;53.24;77.41;;
18377;Laerm;9315;52.624;13.544;2023-09-08T13:25:22;68.96;53.39;79.89;;
18377;Laerm;9315;52.624;13.544;2023-09-08T13:27:50;68.69;54.21;76.47;;
18377;Laerm;9315;52.624;13.544;2023-09-08T13:30:18;67.39;50.36;75.49;;
18377;Laerm;9315;52.624;13.544;2023-09-08T13:32:46;67.15;56.72;80.25;;
18377;Laerm;9315;52.624;13.544;2023-09-08T13:35:13;67.82;52.05;79.43;;
18377;Laerm;9315;52.624;13.544;2023-09-08T13:37:41;70.72;50.06;85.03;;
18377;Laerm;9315;52.624;13.544;2023-09-08T13:40:09;68.60;51.36;77.67;;
18377;Laerm;9315;52.624;13.544;2023-09-08T13:42:37;66.28;45.63;75.45;;
18377;Laerm;9315;52.624;13.544;2023-09-08T13:45:05;69.05;48.83;81.62;;
18377;Laerm;9315;52.624;13.544;2023-09-08T13:47:33;67.20;54.37;77.69;;
18377;Laerm;9315;52.624;13.544;2023-09-08T13:50:05;69.16;49.35;81.67;;
18377;Laerm;9315;52.624;13.544;2023-09-08T13:52:33;68.07;47.19;83.68;;
18377;Laerm;9315;52.624;13.544;2023-09-08T13:55:06;67.08;53.85;78.75;;
18377;Laerm;9315;52.624;13.544;2023-09-08T13:57:37;70.31;44.83;89.63;;